createdAt,value
2023-04-11T00:01:14.659Z,8.24
2023-04-11T00:03:41.267Z,8.23
2023-04-11T00:06:07.507Z,8.17
2023-04-11T00:08:33.920Z,8.20
2023-04-11T00:11:00.319Z,8.18
2023-04-11T00:13:26.704Z,8.23
2023-04-11T00:15:53.071Z,8.23
2023-04-11T00:18:19.447Z,8.18
2023-04-11T00:20:45.899Z,8.13
2023-04-11T00:23:12.291Z,8.13
2023-04-11T00:25:38.674Z,8.12
2023-04-11T00:28:05.143Z,8.13
2023-04-11T00:30:31.559Z,8.12
2023-04-11T00:32:57.977Z,8.06
2023-04-11T00:35:24.330Z,8.07
2023-04-11T00:37:50.705Z,8.05
2023-04-11T00:40:17.169Z,8.02
2023-04-11T00:42:43.600Z,8.02
2023-04-11T00:45:09.999Z,8.05
2023-04-11T00:47:36.438Z,8.01
2023-04-11T00:50:02.743Z,7.90
2023-04-11T00:52:29.114Z,7.88
2023-04-11T00:54:55.488Z,7.92
2023-04-11T00:57:21.922Z,7.93
2023-04-11T00:59:48.389Z,7.91
2023-04-11T01:02:14.796Z,7.93
2023-04-11T01:04:41.144Z,7.98
2023-04-11T01:07:07.511Z,7.96
2023-04-11T01:09:33.889Z,7.98
2023-04-11T01:12:00.302Z,8.00
2023-04-11T01:14:26.682Z,7.99
2023-04-11T01:16:53.106Z,7.96
2023-04-11T01:19:19.497Z,7.93
2023-04-11T01:21:45.903Z,7.97
2023-04-11T01:24:12.279Z,8.00
2023-04-11T01:26:38.759Z,7.96
2023-04-11T01:29:05.115Z,7.90
2023-04-11T01:31:32.828Z,7.90
2023-04-11T01:33:57.945Z,7.88
2023-04-11T01:36:24.396Z,7.85
2023-04-11T01:38:50.798Z,7.91
2023-04-11T01:41:17.217Z,7.94
2023-04-11T01:43:43.578Z,7.84
2023-04-11T01:46:10.006Z,7.80
2023-04-11T01:48:36.524Z,7.84
2023-04-11T01:51:02.767Z,7.85
2023-04-11T01:53:29.141Z,7.87
2023-04-11T01:55:55.558Z,7.84
2023-04-11T01:58:21.975Z,7.78
2023-04-11T02:00:48.376Z,7.77
2023-04-11T02:03:14.966Z,7.82
2023-04-11T02:05:41.198Z,7.85
2023-04-11T02:08:07.561Z,7.82
2023-04-11T02:10:33.949Z,7.77
2023-04-11T02:13:00.348Z,7.82
2023-04-11T02:15:26.797Z,7.85
2023-04-11T02:17:53.208Z,7.91
2023-04-11T02:20:19.580Z,7.83
2023-04-11T02:22:45.969Z,7.80
2023-04-11T02:25:12.351Z,7.76
2023-04-11T02:27:38.705Z,7.71
2023-04-11T02:30:05.114Z,7.64
2023-04-11T02:32:31.548Z,7.63
2023-04-11T02:34:57.939Z,7.63
2023-04-11T02:37:24.365Z,7.60
2023-04-11T02:39:50.741Z,7.61
2023-04-11T02:42:17.162Z,7.57
2023-04-11T02:44:43.561Z,7.58
2023-04-11T02:47:09.970Z,7.56
2023-04-11T02:49:36.353Z,7.52
2023-04-11T02:52:02.741Z,7.52
2023-04-11T02:54:29.109Z,7.57
2023-04-11T02:56:55.486Z,7.56
2023-04-11T02:59:21.955Z,7.55
2023-04-11T03:01:48.383Z,7.52
2023-04-11T03:04:14.732Z,7.53
2023-04-11T03:06:41.106Z,7.50
2023-04-11T03:09:07.469Z,7.51
2023-04-11T03:11:33.895Z,7.50
2023-04-11T03:14:00.259Z,7.49
2023-04-11T03:16:26.723Z,7.47
2023-04-11T03:18:53.144Z,7.47
2023-04-11T03:21:19.406Z,7.50
2023-04-11T03:23:45.779Z,7.49
2023-04-11T03:26:12.207Z,7.51
2023-04-11T03:28:38.640Z,7.49
2023-04-11T03:31:05.080Z,7.46
2023-04-11T03:33:31.486Z,7.47
2023-04-11T03:35:57.914Z,7.49
2023-04-11T03:38:24.267Z,7.47
2023-04-11T03:40:50.677Z,7.42
2023-04-11T03:43:17.051Z,7.43
2023-04-11T03:45:43.417Z,7.42
2023-04-11T03:48:09.862Z,7.42
2023-04-11T03:50:36.276Z,7.38
2023-04-11T03:53:02.699Z,7.40
2023-04-11T03:55:29.107Z,7.39
2023-04-11T03:57:55.506Z,7.39
2023-04-11T04:00:22.138Z,7.43
2023-04-11T04:02:48.745Z,7.43
2023-04-11T04:05:14.893Z,7.40
2023-04-11T04:07:41.321Z,7.38
2023-04-11T04:10:07.754Z,7.35
2023-04-11T04:12:34.155Z,7.31
2023-04-11T04:15:00.539Z,7.34
2023-04-11T04:17:26.987Z,7.33
2023-04-11T04:19:53.385Z,7.32
2023-04-11T04:22:19.737Z,7.31
2023-04-11T04:24:46.402Z,7.29
2023-04-11T04:27:12.968Z,7.25
2023-04-11T04:29:39.598Z,7.30
2023-04-11T04:32:05.988Z,7.35
2023-04-11T04:34:32.259Z,7.33
2023-04-11T04:36:58.631Z,7.31
2023-04-11T04:39:25.115Z,7.31
2023-04-11T04:41:51.568Z,7.33
2023-04-11T04:44:18.005Z,7.30
2023-04-11T04:46:44.936Z,7.30
2023-04-11T04:49:11.328Z,7.30
2023-04-11T04:51:37.684Z,7.37
2023-04-11T04:54:04.067Z,7.41
2023-04-11T04:56:30.788Z,7.40
2023-04-11T04:58:57.206Z,7.40
2023-04-11T05:01:23.614Z,7.40
2023-04-11T05:03:50.023Z,7.47
2023-04-11T05:06:17.420Z,7.46
2023-04-11T05:08:43.072Z,7.48
2023-04-11T05:11:09.484Z,7.54
2023-04-11T05:13:35.919Z,7.54
2023-04-11T05:16:02.291Z,7.54
2023-04-11T05:18:28.892Z,7.55
2023-04-11T05:20:55.265Z,7.60
2023-04-11T05:23:21.669Z,7.61
2023-04-11T05:25:48.064Z,7.68
2023-04-11T05:28:14.440Z,7.73
2023-04-11T05:30:41.073Z,7.71
2023-04-11T05:33:07.612Z,7.76
2023-04-11T05:35:33.869Z,7.84
2023-04-11T05:38:00.212Z,7.91
2023-04-11T05:40:26.743Z,7.95
2023-04-11T05:42:53.152Z,8.03
2023-04-11T05:45:19.576Z,8.10
2023-04-11T05:47:46.233Z,8.13
2023-04-11T05:50:12.720Z,8.24
2023-04-11T05:52:39.142Z,8.32
2023-04-11T05:55:05.552Z,8.43
2023-04-11T05:57:31.920Z,8.52
2023-04-11T05:59:58.339Z,8.52
2023-04-11T06:02:25.020Z,8.60
2023-04-11T06:04:51.282Z,8.68
2023-04-11T06:07:17.651Z,8.70
2023-04-11T06:09:44.124Z,8.71
2023-04-11T06:12:10.632Z,8.83
2023-04-11T06:14:39.596Z,8.89
2023-04-11T06:17:03.383Z,8.91
2023-04-11T06:19:29.802Z,9.14
2023-04-11T06:21:56.660Z,9.74
2023-04-11T06:24:23.057Z,9.94
2023-04-11T06:26:49.498Z,10.17
2023-04-11T06:29:15.877Z,10.75
2023-04-11T06:31:42.520Z,11.05
2023-04-11T06:34:08.840Z,11.35
2023-04-11T06:36:35.217Z,11.79
2023-04-11T06:39:01.665Z,11.72
2023-04-11T06:41:28.218Z,11.70
2023-04-11T06:43:54.815Z,11.85
2023-04-11T06:46:21.029Z,11.84
2023-04-11T06:48:47.618Z,11.77
2023-04-11T06:51:14.210Z,11.72
2023-04-11T06:53:41.732Z,11.09
2023-04-11T06:56:08.146Z,10.62
2023-04-11T06:58:34.550Z,10.26
2023-04-11T07:01:00.919Z,9.90
2023-04-11T07:03:27.381Z,9.82
2023-04-11T07:05:53.688Z,9.81
2023-04-11T07:08:20.045Z,9.81
2023-04-11T07:10:46.544Z,9.89
2023-04-11T07:13:12.961Z,9.97
2023-04-11T07:15:39.434Z,10.10
2023-04-11T07:18:05.825Z,10.10
2023-04-11T07:20:32.180Z,10.16
2023-04-11T07:22:58.626Z,10.18
2023-04-11T07:25:25.042Z,10.45
2023-04-11T07:27:51.683Z,10.89
2023-04-11T07:30:18.271Z,11.04
2023-04-11T07:32:44.802Z,11.22
2023-04-11T07:35:11.169Z,11.32
2023-04-11T07:37:38.897Z,11.68
2023-04-11T07:40:05.417Z,11.41
2023-04-11T07:42:31.890Z,11.19
2023-04-11T07:44:58.387Z,11.12
2023-04-11T07:47:24.720Z,11.18
2023-04-11T07:49:51.144Z,11.41
2023-04-11T07:52:17.549Z,11.34
2023-04-11T07:54:44.050Z,11.39
2023-04-11T07:57:10.450Z,11.61
2023-04-11T07:59:37.448Z,11.78
2023-04-11T08:02:07.901Z,12.40
2023-04-11T08:04:34.762Z,12.76
2023-04-11T08:07:00.792Z,12.87
2023-04-11T08:09:27.279Z,12.72
2023-04-11T08:11:54.059Z,12.54
2023-04-11T08:14:20.402Z,12.11
2023-04-11T08:16:47.003Z,11.98
2023-04-11T08:19:13.430Z,11.81
2023-04-11T08:21:44.409Z,11.64
2023-04-11T08:24:10.813Z,11.74
2023-04-11T08:26:37.323Z,11.99
2023-04-11T08:29:03.777Z,12.09
2023-04-11T08:31:30.214Z,12.19
2023-04-11T08:33:59.124Z,12.33
2023-04-11T08:36:23.113Z,12.50
2023-04-11T08:38:49.550Z,12.75
2023-04-11T08:41:15.936Z,12.57
2023-04-11T08:43:42.325Z,12.93
2023-04-11T08:46:08.817Z,13.54
2023-04-11T08:48:35.123Z,13.06
2023-04-11T08:51:01.574Z,12.47
2023-04-11T08:53:28.345Z,12.46
2023-04-11T08:55:54.780Z,13.09
2023-04-11T08:58:21.208Z,13.50
2023-04-11T09:00:47.778Z,14.03
2023-04-11T09:03:14.570Z,14.72
2023-04-11T09:05:40.918Z,14.52
2023-04-11T09:08:07.307Z,14.37
2023-04-11T09:10:33.714Z,14.54
2023-04-11T09:13:00.288Z,14.10
2023-04-11T09:15:26.777Z,14.38
2023-04-11T09:17:53.227Z,13.96
2023-04-11T09:20:19.597Z,13.51
2023-04-11T09:22:45.976Z,13.20
2023-04-11T09:25:12.435Z,13.74
2023-04-11T09:27:38.884Z,13.69
2023-04-11T09:30:05.261Z,13.12
2023-04-11T09:32:31.931Z,12.99
2023-04-11T09:34:58.285Z,12.89
2023-04-11T09:37:24.718Z,12.79
2023-04-11T09:39:51.055Z,12.58
2023-04-11T09:42:17.494Z,12.39
2023-04-11T09:44:44.022Z,12.44
2023-04-11T09:47:10.556Z,12.51
2023-04-11T09:49:36.985Z,12.47
2023-04-11T09:52:03.688Z,12.30
2023-04-11T09:54:30.076Z,12.39
2023-04-11T09:56:56.452Z,12.50
2023-04-11T09:59:23.145Z,12.57
2023-04-11T10:01:52.963Z,12.46
2023-04-11T10:04:19.294Z,12.54
2023-04-11T10:06:45.676Z,12.73
2023-04-11T10:09:12.237Z,12.99
2023-04-11T10:11:38.656Z,13.04
2023-04-11T10:14:05.081Z,12.93
2023-04-11T10:16:31.788Z,13.10
2023-04-11T10:18:58.292Z,13.16
2023-04-11T10:21:24.564Z,14.23
2023-04-11T10:23:51.046Z,13.99
2023-04-11T10:26:17.413Z,13.80
2023-04-11T10:28:43.791Z,13.54
2023-04-11T10:31:10.393Z,13.75
2023-04-11T10:33:36.567Z,15.04
2023-04-11T10:36:03.023Z,14.78
2023-04-11T10:38:29.319Z,16.21
2023-04-11T10:40:55.749Z,17.18
2023-04-11T10:43:22.165Z,16.96
2023-04-11T10:45:48.535Z,17.17
2023-04-11T10:48:14.974Z,17.48
2023-04-11T10:50:41.353Z,17.98
2023-04-11T10:53:07.770Z,18.03
2023-04-11T10:55:34.247Z,18.11
2023-04-11T10:58:00.667Z,17.74
2023-04-11T11:00:27.044Z,17.05
2023-04-11T11:02:53.623Z,17.11
2023-04-11T11:05:19.871Z,17.39
2023-04-11T11:07:46.258Z,17.98
2023-04-11T11:10:12.640Z,17.80
2023-04-11T11:12:38.996Z,16.51
2023-04-11T11:15:05.377Z,15.78
2023-04-11T11:17:31.759Z,15.08
2023-04-11T11:19:58.170Z,14.53
2023-04-11T11:22:24.561Z,14.16
2023-04-11T11:24:50.983Z,14.15
2023-04-11T11:27:17.784Z,14.13
2023-04-11T11:29:44.192Z,14.31
2023-04-11T11:32:10.674Z,15.08
2023-04-11T11:34:37.057Z,16.08
2023-04-11T11:37:03.438Z,16.35
2023-04-11T11:39:29.839Z,16.92
2023-04-11T11:41:56.295Z,17.20
2023-04-11T11:44:22.768Z,16.94
2023-04-11T11:46:49.149Z,16.03
2023-04-11T11:49:15.744Z,15.57
2023-04-11T11:51:42.101Z,15.10
2023-04-11T11:54:08.478Z,14.68
2023-04-11T11:56:34.925Z,15.98
2023-04-11T11:59:01.541Z,16.15
2023-04-11T12:01:27.880Z,15.56
2023-04-11T12:03:54.672Z,15.58
2023-04-11T12:06:20.932Z,15.34
2023-04-11T12:08:47.563Z,15.03
2023-04-11T12:11:14.885Z,14.86
2023-04-11T12:13:41.377Z,14.89
2023-04-11T12:16:07.909Z,15.43
2023-04-11T12:18:34.313Z,16.13
2023-04-11T12:21:00.735Z,16.66
2023-04-11T12:23:27.144Z,16.79
2023-04-11T12:25:53.593Z,16.52
2023-04-11T12:28:22.352Z,16.24
2023-04-11T12:30:50.953Z,15.67
2023-04-11T12:33:17.334Z,15.16
2023-04-11T12:35:45.802Z,15.18
2023-04-11T12:38:14.972Z,15.11
2023-04-11T12:40:38.609Z,15.07
2023-04-11T12:43:05.093Z,15.35
2023-04-11T12:45:31.533Z,15.53
2023-04-11T12:47:57.943Z,15.67
2023-04-11T12:50:24.586Z,15.68
2023-04-11T12:52:50.861Z,15.36
2023-04-11T12:55:17.268Z,15.41
2023-04-11T12:57:43.709Z,15.50
2023-04-11T13:00:10.167Z,15.50
2023-04-11T13:02:42.869Z,15.45
2023-04-11T13:05:03.236Z,15.44
2023-04-11T13:07:29.641Z,15.47
2023-04-11T13:09:56.065Z,15.44
2023-04-11T13:12:22.425Z,15.55
2023-04-11T13:14:48.981Z,15.76
2023-04-11T13:17:15.347Z,15.71
2023-04-11T13:19:41.766Z,15.55
2023-04-11T13:22:08.203Z,15.57
2023-04-11T13:24:34.635Z,15.61
2023-04-11T13:27:00.998Z,15.42
2023-04-11T13:29:27.454Z,15.23
2023-04-11T13:31:53.872Z,15.05
2023-04-11T13:34:20.234Z,14.86
2023-04-11T13:36:46.756Z,14.70
2023-04-11T13:39:13.430Z,14.54
2023-04-11T13:41:39.780Z,14.54
2023-04-11T13:44:06.191Z,14.61
2023-04-11T13:46:32.582Z,14.56
2023-04-11T13:48:59.293Z,14.53
2023-04-11T13:51:25.597Z,14.46
2023-04-11T13:53:52.010Z,14.44
2023-04-11T13:56:18.396Z,14.47
2023-04-11T13:58:44.825Z,14.60
2023-04-11T14:01:11.258Z,14.70
2023-04-11T14:03:37.932Z,14.68
2023-04-11T14:06:04.131Z,14.68
2023-04-11T14:08:30.512Z,14.54
2023-04-11T14:10:57.255Z,14.40
2023-04-11T14:13:23.807Z,14.35
2023-04-11T14:16:05.009Z,14.33
2023-04-11T14:18:16.645Z,14.25
2023-04-11T14:20:43.153Z,14.23
2023-04-11T14:23:09.596Z,14.28
2023-04-11T14:25:36.409Z,14.25
2023-04-11T14:28:02.806Z,14.18
2023-04-11T14:30:29.507Z,14.17
2023-04-11T14:32:55.821Z,14.16
2023-04-11T14:35:22.240Z,14.04
2023-04-11T14:37:48.606Z,13.95
2023-04-11T14:40:15.111Z,13.97
2023-04-11T14:42:41.526Z,14.09
2023-04-11T14:45:07.999Z,14.12
2023-04-11T14:47:34.518Z,14.07
2023-04-11T14:50:00.931Z,13.93
2023-04-11T14:52:27.635Z,13.87
2023-04-11T14:54:54.049Z,13.81
2023-04-11T14:57:20.447Z,13.84
2023-04-11T14:59:46.842Z,13.80
2023-04-11T15:02:13.391Z,13.76
2023-04-11T15:04:39.707Z,13.74
2023-04-11T15:07:06.091Z,13.77
2023-04-11T15:09:32.508Z,13.75
2023-04-11T15:11:58.935Z,13.70
2023-04-11T15:14:25.289Z,13.65
2023-04-11T15:16:51.964Z,13.63
2023-04-11T15:19:18.323Z,13.64
2023-04-11T15:21:45.086Z,13.56
2023-04-11T15:24:11.451Z,13.56
2023-04-11T15:26:38.001Z,13.56
2023-04-11T15:29:04.451Z,13.52
2023-04-11T15:31:31.062Z,13.52
2023-04-11T15:33:57.750Z,13.52
2023-04-11T15:36:24.109Z,13.57
2023-04-11T15:38:50.388Z,13.57
2023-04-11T15:41:16.794Z,13.58
2023-04-11T15:43:43.196Z,13.55
2023-04-11T15:46:09.686Z,13.51
2023-04-11T15:48:36.275Z,13.40
2023-04-11T15:51:02.686Z,13.35
2023-04-11T15:53:29.157Z,13.30
2023-04-11T15:55:57.948Z,13.25
2023-04-11T15:58:24.592Z,13.23
2023-04-11T16:00:51.127Z,13.21
2023-04-11T16:03:17.662Z,13.19
2023-04-11T16:05:44.136Z,13.15
2023-04-11T16:08:10.537Z,13.08
2023-04-11T16:10:37.032Z,13.10
2023-04-11T16:13:03.502Z,13.07
2023-04-11T16:15:30.618Z,13.04
2023-04-11T16:17:58.024Z,13.04
2023-04-11T16:20:24.409Z,13.00
2023-04-11T16:22:50.874Z,12.92
2023-04-11T16:25:17.513Z,12.88
2023-04-11T16:27:45.304Z,12.82
2023-04-11T16:30:11.689Z,12.76
2023-04-11T16:32:38.610Z,12.70
2023-04-11T16:35:05.193Z,12.67
2023-04-11T16:37:31.592Z,12.66
2023-04-11T16:40:00.355Z,12.61
2023-04-11T16:42:26.744Z,12.60
2023-04-11T16:44:53.119Z,12.56
2023-04-11T16:47:24.575Z,12.55
2023-04-11T16:49:51.198Z,12.53
2023-04-11T16:52:17.772Z,12.49
2023-04-11T16:54:45.411Z,12.49
2023-04-11T16:57:12.228Z,12.44
2023-04-11T16:59:38.695Z,12.40
2023-04-11T17:02:05.799Z,12.33
2023-04-11T17:04:32.285Z,12.26
2023-04-11T17:06:58.526Z,12.21
2023-04-11T17:09:24.910Z,12.20
2023-04-11T17:11:51.372Z,12.19
2023-04-11T17:14:17.771Z,12.17
2023-04-11T17:16:44.418Z,12.16
2023-04-11T17:19:10.742Z,12.13
2023-04-11T17:21:37.113Z,12.13
2023-04-11T17:24:03.488Z,12.12
2023-04-11T17:26:29.886Z,12.10
2023-04-11T17:28:56.571Z,12.09
2023-04-11T17:31:23.353Z,12.06
2023-04-11T17:33:49.692Z,12.01
2023-04-11T17:36:16.157Z,12.01
2023-04-11T17:38:42.526Z,11.99
2023-04-11T17:43:35.441Z,11.95
2023-04-11T17:46:01.892Z,11.93
2023-04-11T17:48:28.267Z,11.92
2023-04-11T17:50:54.843Z,11.91
2023-04-11T17:53:21.256Z,11.90
2023-04-11T17:55:47.619Z,11.89
2023-04-11T17:58:13.998Z,11.86
2023-04-11T18:00:54.811Z,11.83
2023-04-11T18:03:06.902Z,11.81
2023-04-11T18:05:33.202Z,11.82
2023-04-11T18:07:59.647Z,11.84
2023-04-11T18:10:26.015Z,11.88
2023-04-11T18:12:52.405Z,11.89
2023-04-11T18:15:18.900Z,11.91
2023-04-11T18:17:45.330Z,11.93
2023-04-11T18:20:11.914Z,11.94
2023-04-11T18:22:38.302Z,11.95
2023-04-11T18:25:04.917Z,11.94
2023-04-11T18:27:32.013Z,11.90
2023-04-11T18:29:58.380Z,11.88
2023-04-11T18:32:27.446Z,11.85
2023-04-11T18:34:52.046Z,11.82
2023-04-11T18:37:17.903Z,11.80
2023-04-11T18:39:44.335Z,11.78
2023-04-11T18:42:11.608Z,11.75
2023-04-11T18:44:37.957Z,11.71
2023-04-11T18:47:06.029Z,11.68
2023-04-11T18:49:31.714Z,11.65
2023-04-11T18:51:58.324Z,11.60
2023-04-11T18:54:24.694Z,11.58
2023-04-11T18:56:52.981Z,11.55
2023-04-11T18:59:18.819Z,11.52
2023-04-11T19:01:44.177Z,11.53
2023-04-11T19:04:12.113Z,11.50
2023-04-11T19:06:38.002Z,11.47
2023-04-11T19:09:07.570Z,11.44
2023-04-11T19:11:38.591Z,11.41
2023-04-11T19:14:12.740Z,11.36
2023-04-11T19:16:39.235Z,11.32
2023-04-11T19:19:05.574Z,11.30
2023-04-11T19:21:32.031Z,11.26
2023-04-11T19:23:58.627Z,11.25
2023-04-11T19:26:24.825Z,11.21
2023-04-11T19:28:51.177Z,11.20
2023-04-11T19:31:17.640Z,11.17
2023-04-11T19:33:44.131Z,11.15
2023-04-11T19:36:10.671Z,11.12
2023-04-11T19:38:37.046Z,11.07
2023-04-11T19:41:05.573Z,11.04
2023-04-11T19:43:32.135Z,11.05
2023-04-11T19:45:58.571Z,11.05
2023-04-11T19:48:24.930Z,11.01
2023-04-11T19:50:51.351Z,10.97
2023-04-11T19:53:17.800Z,10.93
2023-04-11T19:55:44.153Z,10.92
2023-04-11T19:58:10.569Z,10.96
2023-04-11T20:00:36.937Z,10.91
2023-04-11T20:03:03.479Z,10.89
2023-04-11T20:05:30.054Z,10.84
2023-04-11T20:07:56.425Z,10.76
2023-04-11T20:10:22.868Z,10.77
2023-04-11T20:12:49.235Z,10.73
2023-04-11T20:15:15.667Z,10.68
2023-04-11T20:17:43.720Z,10.65
2023-04-11T20:20:08.686Z,10.64
2023-04-11T20:22:34.896Z,10.60
2023-04-11T20:25:01.592Z,10.59
2023-04-11T20:27:27.914Z,10.58
2023-04-11T20:29:54.344Z,10.60
2023-04-11T20:32:20.836Z,10.55
2023-04-11T20:34:47.442Z,10.53
2023-04-11T20:37:13.785Z,10.50
2023-04-11T20:39:40.173Z,10.46
2023-04-11T20:42:06.552Z,10.47
2023-04-11T20:44:32.930Z,10.47
2023-04-11T20:46:59.369Z,10.47
2023-04-11T20:49:25.797Z,10.46
2023-04-11T20:51:52.239Z,10.46
2023-04-11T20:54:18.648Z,10.44
2023-04-11T20:56:45.025Z,10.45
2023-04-11T20:59:11.421Z,10.46
2023-04-11T21:01:38.197Z,10.59
2023-04-11T21:04:04.785Z,10.65
2023-04-11T21:06:30.923Z,10.56
2023-04-11T21:08:57.323Z,10.51
2023-04-11T21:11:23.727Z,10.48
2023-04-11T21:13:50.162Z,10.47
2023-04-11T21:16:16.566Z,10.47
2023-04-11T21:18:42.961Z,10.44
2023-04-11T21:21:09.349Z,10.40
2023-04-11T21:23:35.800Z,10.39
2023-04-11T21:26:03.317Z,10.37
2023-04-11T21:28:29.709Z,10.39
2023-04-11T21:30:56.183Z,10.41
2023-04-11T21:33:22.526Z,10.40
2023-04-11T21:35:49.214Z,10.41
2023-04-11T21:38:15.590Z,10.42
2023-04-11T21:40:41.974Z,10.39
2023-04-11T21:43:08.442Z,10.37
2023-04-11T21:45:34.800Z,10.40
2023-04-11T21:48:01.218Z,10.41
2023-04-11T21:50:27.564Z,10.44
2023-04-11T21:52:53.990Z,10.48
2023-04-11T21:55:20.357Z,10.49
2023-04-11T21:57:46.805Z,10.47
2023-04-11T22:00:13.164Z,10.45
2023-04-11T22:02:39.685Z,10.44
2023-04-11T22:05:07.669Z,10.38
2023-04-11T22:07:33.667Z,10.37
2023-04-11T22:09:59.892Z,10.34
2023-04-11T22:12:26.304Z,10.36
2023-04-11T22:14:52.745Z,10.36
2023-04-11T22:17:19.116Z,10.41
2023-04-11T22:19:45.518Z,10.37
2023-04-11T22:22:11.889Z,10.36
2023-04-11T22:24:38.321Z,10.38
2023-04-11T22:27:04.721Z,10.34
2023-04-11T22:29:31.159Z,10.31
2023-04-11T22:31:57.650Z,10.32
2023-04-11T22:34:23.976Z,10.31
2023-04-11T22:36:50.361Z,10.30
2023-04-11T22:39:16.734Z,10.27
2023-04-11T22:41:43.225Z,10.22
2023-04-11T22:44:09.510Z,10.24
2023-04-11T22:46:35.965Z,10.23
2023-04-11T22:49:02.342Z,10.22
2023-04-11T22:51:28.774Z,10.24
2023-04-11T22:53:55.552Z,10.25
2023-04-11T22:56:21.616Z,10.22
2023-04-11T22:58:48.021Z,10.19
2023-04-11T23:01:17.949Z,10.18
2023-04-11T23:03:44.360Z,10.15
2023-04-11T23:06:10.874Z,10.14
2023-04-11T23:08:37.183Z,10.13
2023-04-11T23:11:06.266Z,10.15
2023-04-11T23:13:34.786Z,10.15
2023-04-11T23:16:01.178Z,10.14
2023-04-11T23:18:28.049Z,10.14
2023-04-11T23:20:54.472Z,10.18
2023-04-11T23:23:20.869Z,10.18
2023-04-11T23:25:47.284Z,10.16
2023-04-11T23:28:13.670Z,10.13
2023-04-11T23:30:40.157Z,10.13
2023-04-11T23:33:06.551Z,10.14
2023-04-11T23:35:32.930Z,10.12
2023-04-11T23:37:59.296Z,10.09
2023-04-11T23:40:25.716Z,10.07
2023-04-11T23:42:52.092Z,10.04
2023-04-11T23:45:18.475Z,10.06
2023-04-11T23:47:44.901Z,10.03
2023-04-11T23:50:11.311Z,10.03
2023-04-11T23:52:37.721Z,10.01
2023-04-11T23:55:04.088Z,10.01
2023-04-11T23:57:30.869Z,10.01
2023-04-11T23:59:57.281Z,10.00
